createdAt,value
2022-10-18T00:00:16.961Z,9.85
2022-10-18T00:02:46.048Z,9.79
2022-10-18T00:05:13.418Z,9.74
2022-10-18T00:07:40.593Z,9.69
2022-10-18T00:10:08.915Z,9.64
2022-10-18T00:12:37.436Z,9.58
2022-10-18T00:15:06.561Z,9.53
2022-10-18T00:17:35.298Z,9.45
2022-10-18T00:20:02.914Z,9.38
2022-10-18T00:22:30.450Z,9.35
2022-10-18T00:24:57.841Z,9.29
2022-10-18T00:27:24.959Z,9.24
2022-10-18T00:29:53.203Z,9.21
2022-10-18T00:32:20.543Z,9.18
2022-10-18T00:34:47.933Z,9.15
2022-10-18T00:37:15.569Z,9.11
2022-10-18T00:39:48.051Z,9.04
2022-10-18T00:42:22.894Z,8.97
2022-10-18T00:44:54.286Z,8.93
2022-10-18T00:47:22.516Z,8.91
2022-10-18T00:49:53.660Z,8.86
2022-10-18T00:52:36.981Z,8.84
2022-10-18T00:55:11.707Z,8.84
2022-10-18T00:57:43.842Z,8.82
2022-10-18T01:00:13.626Z,8.80
2022-10-18T01:02:46.533Z,8.79
2022-10-18T01:05:16.817Z,8.79
2022-10-18T01:08:04.193Z,8.82
2022-10-18T01:10:39.856Z,8.85
2022-10-18T01:13:24.837Z,8.86
2022-10-18T01:16:01.494Z,8.91
2022-10-18T01:18:41.448Z,9.00
2022-10-18T01:21:21.477Z,9.06
2022-10-18T01:24:04.332Z,9.10
2022-10-18T01:26:51.902Z,9.11
2022-10-18T01:29:31.991Z,9.12
2022-10-18T01:32:07.691Z,9.13
2022-10-18T01:34:36.042Z,9.12
2022-10-18T01:37:05.701Z,9.10
2022-10-18T01:39:36.063Z,9.06
2022-10-18T01:42:06.083Z,9.02
2022-10-18T01:44:34.847Z,8.93
2022-10-18T01:47:03.802Z,8.86
2022-10-18T01:49:32.713Z,8.81
2022-10-18T01:52:00.067Z,8.72
2022-10-18T01:54:38.997Z,8.66
2022-10-18T01:57:12.818Z,8.62
2022-10-18T01:59:52.322Z,8.58
2022-10-18T02:02:32.473Z,8.53
2022-10-18T02:05:06.069Z,8.44
2022-10-18T02:07:37.401Z,8.39
2022-10-18T02:12:43.972Z,8.29
2022-10-18T02:15:13.484Z,8.29
2022-10-18T02:17:40.719Z,8.25
2022-10-18T02:20:09.040Z,8.25
2022-10-18T02:22:37.325Z,8.26
2022-10-18T02:25:08.746Z,8.29
2022-10-18T02:27:37.209Z,8.30
2022-10-18T02:30:05.458Z,8.28
2022-10-18T02:32:48.608Z,8.26
2022-10-18T02:35:19.400Z,8.22
2022-10-18T02:37:48.319Z,8.18
2022-10-18T02:40:15.871Z,8.14
2022-10-18T02:42:56.943Z,8.09
2022-10-18T02:45:25.648Z,8.08
2022-10-18T02:47:53.467Z,8.12
2022-10-18T02:50:21.163Z,8.17
2022-10-18T02:52:48.258Z,8.22
2022-10-18T02:55:15.671Z,8.25
2022-10-18T02:57:42.939Z,8.28
2022-10-18T03:00:11.170Z,8.34
2022-10-18T03:02:38.545Z,8.39
2022-10-18T03:05:05.985Z,8.41
2022-10-18T03:07:33.685Z,8.41
2022-10-18T03:10:01.167Z,8.40
2022-10-18T03:12:28.314Z,8.36
2022-10-18T03:14:55.539Z,8.33
2022-10-18T03:17:22.779Z,8.31
2022-10-18T03:19:49.886Z,8.27
2022-10-18T03:22:17.111Z,8.27
2022-10-18T03:24:45.022Z,8.27
2022-10-18T03:27:12.159Z,8.30
2022-10-18T03:29:39.988Z,8.35
2022-10-18T03:32:07.072Z,8.37
2022-10-18T03:34:34.117Z,8.40
2022-10-18T03:37:04.653Z,8.42
2022-10-18T03:39:30.947Z,8.44
2022-10-18T03:41:58.077Z,8.47
2022-10-18T03:44:25.445Z,8.49
2022-10-18T03:46:52.483Z,8.49
2022-10-18T03:49:21.119Z,8.50
2022-10-18T03:51:48.467Z,8.49
2022-10-18T03:54:15.810Z,8.49
2022-10-18T03:56:43.016Z,8.45
2022-10-18T03:59:10.231Z,8.41
2022-10-18T04:01:37.525Z,8.36
2022-10-18T04:04:05.004Z,8.30
2022-10-18T04:06:32.405Z,8.22
2022-10-18T04:08:59.829Z,8.14
2022-10-18T04:11:27.084Z,8.09
2022-10-18T04:13:54.361Z,8.03
2022-10-18T04:16:21.514Z,7.98
2022-10-18T04:18:48.867Z,7.91
2022-10-18T04:21:16.808Z,7.83
2022-10-18T04:23:43.900Z,7.79
2022-10-18T04:26:11.006Z,7.74
2022-10-18T04:28:39.507Z,7.70
2022-10-18T04:31:06.916Z,7.68
2022-10-18T04:33:34.162Z,7.67
2022-10-18T04:36:01.344Z,7.67
2022-10-18T04:38:28.430Z,7.64
2022-10-18T04:40:55.524Z,7.61
2022-10-18T04:43:22.631Z,7.58
2022-10-18T04:45:50.756Z,7.56
2022-10-18T04:48:18.640Z,7.54
2022-10-18T04:50:47.920Z,7.50
2022-10-18T04:53:15.999Z,7.50
2022-10-18T04:55:45.306Z,7.48
2022-10-18T04:58:12.791Z,7.49
2022-10-18T05:00:40.308Z,7.46
2022-10-18T05:03:08.326Z,7.42
2022-10-18T05:05:50.057Z,7.41
2022-10-18T05:08:06.530Z,7.39
2022-10-18T05:10:33.667Z,7.35
2022-10-18T05:13:00.973Z,7.36
2022-10-18T05:15:27.993Z,7.36
2022-10-18T05:17:54.998Z,7.36
2022-10-18T05:20:22.419Z,7.36
2022-10-18T05:22:49.481Z,7.36
2022-10-18T05:25:16.816Z,7.40
2022-10-18T05:27:43.991Z,7.42
2022-10-18T05:30:11.362Z,7.44
2022-10-18T05:32:38.551Z,7.48
2022-10-18T05:35:09.620Z,7.55
2022-10-18T05:37:36.744Z,7.59
2022-10-18T05:40:04.310Z,7.67
2022-10-18T05:42:31.914Z,7.76
2022-10-18T05:44:59.368Z,7.86
2022-10-18T05:47:26.569Z,7.95
2022-10-18T05:49:53.821Z,8.04
2022-10-18T05:52:20.920Z,8.12
2022-10-18T05:54:48.315Z,8.23
2022-10-18T05:57:15.579Z,8.32
2022-10-18T05:59:43.743Z,8.42
2022-10-18T06:02:11.938Z,8.50
2022-10-18T06:04:39.259Z,8.61
2022-10-18T06:07:10.814Z,8.75
2022-10-18T06:09:38.339Z,8.89
2022-10-18T06:12:07.779Z,9.06
2022-10-18T06:14:36.257Z,9.25
2022-10-18T06:17:03.696Z,9.45
2022-10-18T06:19:30.979Z,9.67
2022-10-18T06:21:58.399Z,9.88
2022-10-18T06:24:26.196Z,10.08
2022-10-18T06:26:53.581Z,10.28
2022-10-18T06:29:20.639Z,10.53
2022-10-18T06:31:47.768Z,10.74
2022-10-18T06:34:14.991Z,10.96
2022-10-18T06:36:42.156Z,11.11
2022-10-18T06:39:09.755Z,11.23
2022-10-18T06:41:36.969Z,11.35
2022-10-18T06:44:07.830Z,11.51
2022-10-18T06:46:34.820Z,11.66
2022-10-18T06:49:02.112Z,11.79
2022-10-18T06:51:29.316Z,11.89
2022-10-18T06:54:16.879Z,11.97
2022-10-18T06:56:25.603Z,12.06
2022-10-18T06:58:52.963Z,12.19
2022-10-18T07:01:20.435Z,12.30
2022-10-18T07:03:48.917Z,12.41
2022-10-18T07:06:18.430Z,12.52
2022-10-18T07:08:46.333Z,12.60
2022-10-18T07:11:16.193Z,12.67
2022-10-18T07:13:43.286Z,12.77
2022-10-18T07:16:14.306Z,12.86
2022-10-18T07:18:43.559Z,12.95
2022-10-18T07:21:13.483Z,13.07
2022-10-18T07:23:42.654Z,13.19
2022-10-18T07:26:31.175Z,13.28
2022-10-18T07:29:02.185Z,13.40
2022-10-18T07:31:30.021Z,13.52
2022-10-18T07:33:57.673Z,13.66
2022-10-18T07:36:25.336Z,13.78
2022-10-18T07:38:53.326Z,13.91
2022-10-18T07:41:21.201Z,13.99
2022-10-18T07:43:53.225Z,14.11
2022-10-18T07:46:21.777Z,14.23
2022-10-18T07:48:49.172Z,14.32
2022-10-18T07:51:17.478Z,14.43
2022-10-18T07:53:45.016Z,14.51
2022-10-18T07:56:19.781Z,14.50
2022-10-18T07:58:50.762Z,14.50
2022-10-18T08:01:19.075Z,14.55
2022-10-18T08:03:46.328Z,14.66
2022-10-18T08:06:15.715Z,14.72
2022-10-18T08:08:43.170Z,14.72
2022-10-18T08:11:14.440Z,14.77
2022-10-18T08:13:42.397Z,14.84
2022-10-18T08:16:12.617Z,14.90
2022-10-18T08:18:40.063Z,14.89
2022-10-18T08:21:09.186Z,14.80
2022-10-18T08:23:36.942Z,14.80
2022-10-18T08:26:05.608Z,14.84
2022-10-18T08:28:34.798Z,14.95
2022-10-18T08:31:06.664Z,15.01
2022-10-18T08:33:35.685Z,15.06
2022-10-18T08:36:07.794Z,15.15
2022-10-18T08:38:36.727Z,15.27
2022-10-18T08:41:39.581Z,15.39
2022-10-18T08:44:30.275Z,15.48
2022-10-18T08:47:06.037Z,15.52
2022-10-18T08:49:50.946Z,15.55
2022-10-18T08:52:30.940Z,15.64
2022-10-18T08:55:03.958Z,15.75
2022-10-18T08:57:32.691Z,15.85
2022-10-18T09:00:02.541Z,15.95
2022-10-18T09:02:49.920Z,16.04
2022-10-18T09:05:20.649Z,16.15
2022-10-18T09:08:11.017Z,16.23
2022-10-18T09:10:45.423Z,16.26
2022-10-18T09:13:28.384Z,16.25
2022-10-18T09:15:59.274Z,16.28
2022-10-18T09:18:48.464Z,16.29
2022-10-18T09:21:23.019Z,16.30
2022-10-18T09:24:08.889Z,16.33
2022-10-18T09:26:45.859Z,16.37
2022-10-18T09:29:40.569Z,16.38
2022-10-18T09:32:31.832Z,16.35
2022-10-18T09:35:26.918Z,16.39
2022-10-18T09:37:57.661Z,16.51
2022-10-18T09:40:27.748Z,16.63
2022-10-18T09:43:04.700Z,16.73
2022-10-18T09:45:34.818Z,16.80
2022-10-18T09:48:05.625Z,16.91
2022-10-18T09:50:47.991Z,16.96
2022-10-18T09:53:28.104Z,16.94
2022-10-18T09:56:06.796Z,16.90
2022-10-18T09:58:46.513Z,16.80
2022-10-18T10:01:22.320Z,16.78
2022-10-18T10:03:49.470Z,16.81
2022-10-18T10:06:25.830Z,16.86
2022-10-18T10:08:59.792Z,16.89
2022-10-18T10:11:41.787Z,16.92
2022-10-18T10:14:18.774Z,16.99
2022-10-18T10:16:57.476Z,17.06
2022-10-18T10:19:34.175Z,17.10
2022-10-18T10:22:09.209Z,17.11
2022-10-18T10:24:53.630Z,17.21
2022-10-18T10:27:33.843Z,17.33
2022-10-18T10:30:06.727Z,17.41
2022-10-18T10:32:35.018Z,17.52
2022-10-18T10:35:02.176Z,17.54
2022-10-18T10:37:32.458Z,17.65
2022-10-18T10:40:28.709Z,17.72
2022-10-18T10:43:25.066Z,17.79
2022-10-18T10:46:01.666Z,17.97
2022-10-18T10:48:33.518Z,18.12
2022-10-18T10:51:06.945Z,18.24
2022-10-18T10:53:44.481Z,18.34
2022-10-18T10:56:17.319Z,18.40
2022-10-18T10:58:44.488Z,18.47
2022-10-18T11:01:23.766Z,18.62
2022-10-18T11:03:53.749Z,18.78
2022-10-18T11:06:49.178Z,18.95
2022-10-18T11:09:26.181Z,19.02
2022-10-18T11:11:56.802Z,19.00
2022-10-18T11:14:27.253Z,19.04
2022-10-18T11:17:13.206Z,19.08
2022-10-18T11:19:57.025Z,19.06
2022-10-18T11:22:25.754Z,19.07
2022-10-18T11:24:52.859Z,19.07
2022-10-18T11:27:38.964Z,19.03
2022-10-18T11:30:21.785Z,19.05
2022-10-18T11:33:33.669Z,19.03
2022-10-18T11:36:06.021Z,19.05
2022-10-18T11:38:45.511Z,19.11
2022-10-18T11:41:31.199Z,19.15
2022-10-18T11:44:02.957Z,19.19
2022-10-18T11:46:45.814Z,19.21
2022-10-18T11:49:53.397Z,19.23
2022-10-18T11:52:32.817Z,19.23
2022-10-18T11:55:20.336Z,19.24
2022-10-18T11:57:57.378Z,19.26
2022-10-18T12:00:48.561Z,19.30
2022-10-18T12:03:28.601Z,19.30
2022-10-18T12:05:57.814Z,19.33
2022-10-18T12:08:29.165Z,19.37
2022-10-18T12:11:06.156Z,19.41
2022-10-18T12:13:34.651Z,19.44
2022-10-18T12:16:06.771Z,19.48
2022-10-18T12:18:35.994Z,19.54
2022-10-18T12:21:05.083Z,19.57
2022-10-18T12:23:38.446Z,19.63
2022-10-18T12:26:07.756Z,19.70
2022-10-18T12:28:41.482Z,19.76
2022-10-18T12:31:27.671Z,19.79
2022-10-18T12:33:57.658Z,19.82
2022-10-18T12:36:51.174Z,19.89
2022-10-18T12:39:44.009Z,19.93
2022-10-18T12:42:00.315Z,20.07
2022-10-18T12:44:33.068Z,20.20
2022-10-18T12:47:04.751Z,20.31
2022-10-18T12:49:35.296Z,20.41
2022-10-18T12:52:04.882Z,20.48
2022-10-18T12:54:34.930Z,20.54
2022-10-18T12:57:04.439Z,20.57
2022-10-18T12:59:35.212Z,20.60
2022-10-18T13:02:07.059Z,20.62
2022-10-18T13:04:35.611Z,20.64
2022-10-18T13:07:09.323Z,20.66
2022-10-18T13:09:41.190Z,20.69
2022-10-18T13:12:15.014Z,20.67
2022-10-18T13:15:05.964Z,20.65
2022-10-18T13:17:32.067Z,20.63
2022-10-18T13:20:27.026Z,20.58
2022-10-18T13:22:58.140Z,20.52
2022-10-18T13:25:51.927Z,20.48
2022-10-18T13:28:38.235Z,20.46
2022-10-18T13:31:20.658Z,20.43
2022-10-18T13:33:48.054Z,20.43
2022-10-18T13:36:23.535Z,20.45
2022-10-18T13:38:57.724Z,20.46
2022-10-18T13:41:30.158Z,20.50
2022-10-18T13:44:04.584Z,20.51
2022-10-18T13:46:38.508Z,20.50
2022-10-18T13:49:26.290Z,20.49
2022-10-18T13:52:03.079Z,20.52
2022-10-18T13:55:04.363Z,20.60
2022-10-18T13:57:52.198Z,20.64
2022-10-18T14:00:53.362Z,20.69
2022-10-18T14:03:56.739Z,20.77
2022-10-18T14:06:10.695Z,20.84
2022-10-18T14:08:44.306Z,20.86
2022-10-18T14:11:34.968Z,20.85
2022-10-18T14:14:25.589Z,20.85
2022-10-18T14:16:59.766Z,20.86
2022-10-18T14:19:41.117Z,20.87
2022-10-18T14:22:30.869Z,20.95
2022-10-18T14:24:58.935Z,21.05
2022-10-18T14:27:32.374Z,21.09
2022-10-18T14:30:18.382Z,21.12
2022-10-18T14:32:48.568Z,21.16
2022-10-18T14:35:37.643Z,21.17
2022-10-18T14:37:53.556Z,21.18
2022-10-18T14:40:38.597Z,21.13
2022-10-18T14:43:12.364Z,21.12
2022-10-18T14:45:41.072Z,21.04
2022-10-18T14:48:14.544Z,20.92
2022-10-18T14:50:43.396Z,20.78
2022-10-18T14:53:16.333Z,20.65
2022-10-18T14:55:43.616Z,20.52
2022-10-18T14:58:15.209Z,20.40
2022-10-18T15:00:45.093Z,20.27
2022-10-18T15:03:14.052Z,20.11
2022-10-18T15:05:55.747Z,19.91
2022-10-18T15:08:24.077Z,19.72
2022-10-18T15:10:51.870Z,19.52
2022-10-18T15:13:19.044Z,19.33
2022-10-18T15:15:46.678Z,19.13
2022-10-18T15:18:23.467Z,19.00
2022-10-18T15:21:21.560Z,18.85
2022-10-18T15:23:49.708Z,18.70
2022-10-18T15:26:23.509Z,18.53
2022-10-18T15:28:52.550Z,18.42
2022-10-18T15:31:36.925Z,18.29
2022-10-18T15:34:22.723Z,18.14
2022-10-18T15:36:51.415Z,17.99
2022-10-18T15:39:24.097Z,17.82
2022-10-18T15:41:54.238Z,17.69
2022-10-18T15:44:24.452Z,17.50
2022-10-18T15:46:54.882Z,17.28
2022-10-18T15:49:28.502Z,17.05
2022-10-18T15:52:04.939Z,16.84
2022-10-18T15:54:32.282Z,16.66
2022-10-18T15:57:03.000Z,16.47
2022-10-18T15:59:31.583Z,16.33
2022-10-18T16:01:58.697Z,16.17
2022-10-18T16:04:28.428Z,16.06
2022-10-18T16:06:56.986Z,15.97
2022-10-18T16:09:26.284Z,15.85
2022-10-18T16:11:56.942Z,15.75
2022-10-18T16:14:22.299Z,15.63
2022-10-18T16:16:53.157Z,15.51
2022-10-18T16:19:22.217Z,15.40
2022-10-18T16:21:50.474Z,15.26
2022-10-18T16:24:18.576Z,15.14
2022-10-18T16:26:45.990Z,15.03
2022-10-18T16:29:22.928Z,14.93
2022-10-18T16:31:52.733Z,14.79
2022-10-18T16:34:19.920Z,14.67
2022-10-18T16:36:46.867Z,14.57
2022-10-18T16:39:16.286Z,14.50
2022-10-18T16:41:44.049Z,14.44
2022-10-18T16:44:11.532Z,14.40
2022-10-18T16:46:38.797Z,14.35
2022-10-18T16:49:06.115Z,14.30
2022-10-18T16:51:33.025Z,14.25
2022-10-18T16:54:00.074Z,14.20
2022-10-18T16:56:30.128Z,14.18
2022-10-18T16:58:58.574Z,14.15
2022-10-18T17:01:26.362Z,14.10
2022-10-18T17:03:54.714Z,14.02
2022-10-18T17:06:28.686Z,13.95
2022-10-18T17:08:57.276Z,13.90
2022-10-18T17:11:27.775Z,13.84
2022-10-18T17:13:55.386Z,13.80
2022-10-18T17:16:31.536Z,13.75
2022-10-18T17:19:01.180Z,13.70
2022-10-18T17:21:29.318Z,13.67
2022-10-18T17:23:58.311Z,13.62
2022-10-18T17:26:28.759Z,13.57
2022-10-18T17:28:57.934Z,13.51
2022-10-18T17:31:25.132Z,13.49
2022-10-18T17:33:54.105Z,13.48
2022-10-18T17:36:21.806Z,13.46
2022-10-18T17:38:52.990Z,13.44
2022-10-18T17:41:20.535Z,13.43
2022-10-18T17:43:47.725Z,13.42
2022-10-18T17:46:15.331Z,13.35
2022-10-18T17:48:42.511Z,13.31
2022-10-18T17:51:12.062Z,13.26
2022-10-18T17:53:39.740Z,13.21
2022-10-18T17:56:07.384Z,13.17
2022-10-18T17:58:35.000Z,13.12
2022-10-18T18:01:17.995Z,13.06
2022-10-18T18:03:47.239Z,13.03
2022-10-18T18:06:20.336Z,13.03
2022-10-18T18:08:48.899Z,13.02
2022-10-18T18:11:16.903Z,13.03
2022-10-18T18:13:44.065Z,13.02
2022-10-18T18:16:13.250Z,13.01
2022-10-18T18:18:40.820Z,12.99
2022-10-18T18:21:07.985Z,13.01
2022-10-18T18:23:35.002Z,13.02
2022-10-18T18:26:02.011Z,13.01
2022-10-18T18:28:29.289Z,13.00
2022-10-18T18:30:56.571Z,12.97
2022-10-18T18:33:23.831Z,12.95
2022-10-18T18:35:56.333Z,12.95
2022-10-18T18:38:24.062Z,12.92
2022-10-18T18:41:09.314Z,12.89
2022-10-18T18:43:37.853Z,12.85
2022-10-18T18:46:05.248Z,12.81
2022-10-18T18:48:33.999Z,12.76
2022-10-18T18:51:02.382Z,12.65
2022-10-18T18:53:29.937Z,12.57
2022-10-18T18:56:02.162Z,12.50
2022-10-18T18:58:29.493Z,12.43
2022-10-18T19:00:56.737Z,12.35
2022-10-18T19:03:23.674Z,12.27
2022-10-18T19:05:50.766Z,12.27
2022-10-18T19:08:17.884Z,12.22
2022-10-18T19:10:47.031Z,12.16
2022-10-18T19:13:14.224Z,12.08
2022-10-18T19:15:41.223Z,12.05
2022-10-18T19:18:08.338Z,11.99
2022-10-18T19:20:35.334Z,11.93
2022-10-18T19:23:02.451Z,11.89
2022-10-18T19:25:29.572Z,11.85
2022-10-18T19:27:56.689Z,11.80
2022-10-18T19:30:23.986Z,11.74
2022-10-18T19:32:52.902Z,11.69
2022-10-18T19:35:19.965Z,11.62
2022-10-18T19:37:47.119Z,11.60
2022-10-18T19:40:14.221Z,11.57
2022-10-18T19:42:41.263Z,11.55
2022-10-18T19:45:08.886Z,11.52
2022-10-18T19:47:37.701Z,11.53
2022-10-18T19:50:05.425Z,11.49
2022-10-18T19:52:32.821Z,11.50
2022-10-18T19:55:00.119Z,11.46
2022-10-18T19:57:28.243Z,11.43
2022-10-18T19:59:56.663Z,11.40
2022-10-18T20:02:24.234Z,11.34
2022-10-18T20:04:51.561Z,11.30
2022-10-18T20:07:18.511Z,11.27
2022-10-18T20:09:47.389Z,11.23
2022-10-18T20:12:14.798Z,11.21
2022-10-18T20:14:41.953Z,11.20
2022-10-18T20:17:11.206Z,11.19
2022-10-18T20:19:38.392Z,11.18
2022-10-18T20:22:05.462Z,11.13
2022-10-18T20:24:32.409Z,11.10
2022-10-18T20:26:59.509Z,11.04
2022-10-18T20:29:26.513Z,10.99
2022-10-18T20:31:55.088Z,10.96
2022-10-18T20:34:24.409Z,10.91
2022-10-18T20:36:53.687Z,10.88
2022-10-18T20:39:21.427Z,10.80
2022-10-18T20:41:48.618Z,10.77
2022-10-18T20:44:18.711Z,10.72
2022-10-18T20:46:46.481Z,10.73
2022-10-18T20:49:16.202Z,10.74
2022-10-18T20:51:43.557Z,10.76
2022-10-18T20:54:11.432Z,10.77
2022-10-18T20:56:38.790Z,10.80
2022-10-18T20:59:08.217Z,10.81
2022-10-18T21:01:36.586Z,10.86
2022-10-18T21:04:05.938Z,10.89
2022-10-18T21:06:41.628Z,11.02
2022-10-18T21:09:11.482Z,11.14
2022-10-18T21:11:41.303Z,11.26
2022-10-18T21:14:11.079Z,11.34
2022-10-18T21:16:38.126Z,11.35
2022-10-18T21:19:08.752Z,11.31
2022-10-18T21:21:35.933Z,11.28
2022-10-18T21:24:06.948Z,11.26
2022-10-18T21:26:32.434Z,11.27
2022-10-18T21:28:59.906Z,11.28
2022-10-18T21:31:28.963Z,11.24
2022-10-18T21:34:01.612Z,11.19
2022-10-18T21:36:34.176Z,11.09
2022-10-18T21:39:02.686Z,11.01
2022-10-18T21:41:30.854Z,10.94
2022-10-18T21:43:57.849Z,10.89
2022-10-18T21:46:28.155Z,10.79
2022-10-18T21:48:56.744Z,10.72
2022-10-18T21:51:26.012Z,10.64
2022-10-18T21:53:55.307Z,10.57
2022-10-18T21:56:31.151Z,10.51
2022-10-18T21:58:58.809Z,10.44
2022-10-18T22:01:29.143Z,10.38
2022-10-18T22:03:56.602Z,10.33
2022-10-18T22:06:24.468Z,10.28
2022-10-18T22:08:53.964Z,10.25
2022-10-18T22:11:24.417Z,10.19
2022-10-18T22:13:52.014Z,10.14
2022-10-18T22:16:19.467Z,10.08
2022-10-18T22:18:47.948Z,10.05
2022-10-18T22:21:16.502Z,10.01
2022-10-18T22:23:45.918Z,9.97
2022-10-18T22:26:19.300Z,9.93
2022-10-18T22:28:46.369Z,9.89
2022-10-18T22:31:19.396Z,9.85
2022-10-18T22:33:49.176Z,9.79
2022-10-18T22:36:16.092Z,9.74
2022-10-18T22:38:43.252Z,9.68
2022-10-18T22:41:11.323Z,9.63
2022-10-18T22:43:38.669Z,9.60
2022-10-18T22:46:09.052Z,9.58
2022-10-18T22:48:36.578Z,9.55
2022-10-18T22:51:04.183Z,9.55
2022-10-18T22:53:32.477Z,9.50
2022-10-18T22:55:59.629Z,9.46
2022-10-18T22:58:26.774Z,9.39
2022-10-18T23:01:05.215Z,9.35
2022-10-18T23:03:32.452Z,9.32
2022-10-18T23:05:59.783Z,9.26
2022-10-18T23:08:27.096Z,9.23
2022-10-18T23:10:56.168Z,9.19
2022-10-18T23:13:24.502Z,9.17
2022-10-18T23:15:52.204Z,9.12
2022-10-18T23:18:19.336Z,9.12
2022-10-18T23:20:46.408Z,9.15
2022-10-18T23:23:13.754Z,9.16
2022-10-18T23:25:40.828Z,9.15
2022-10-18T23:28:07.949Z,9.15
2022-10-18T23:30:37.320Z,9.16
2022-10-18T23:33:04.282Z,9.16
2022-10-18T23:35:31.243Z,9.15
2022-10-18T23:37:58.490Z,9.14
2022-10-18T23:40:25.670Z,9.12
2022-10-18T23:42:52.811Z,9.13
2022-10-18T23:45:20.102Z,9.14
2022-10-18T23:47:47.215Z,9.16
2022-10-18T23:50:14.723Z,9.19
2022-10-18T23:52:42.059Z,9.21
2022-10-18T23:55:11.548Z,9.22
2022-10-18T23:57:40.343Z,9.26
